createdAt,value
2024-04-21T07:55:05.183Z,8.10
2024-04-21T07:57:32.083Z,8.30
2024-04-21T07:59:59.078Z,8.60
2024-04-21T08:02:30.805Z,8.90
2024-04-21T08:05:01.351Z,9.10
2024-04-21T08:07:28.623Z,9.30
2024-04-21T08:09:55.642Z,9.40
2024-04-21T08:12:22.597Z,9.60
2024-04-21T08:14:50.768Z,9.90
2024-04-21T08:17:18.214Z,10.10
2024-04-21T08:19:45.784Z,10.40
2024-04-21T08:22:12.775Z,10.40
2024-04-21T08:24:42.906Z,10.50
2024-04-21T08:27:09.926Z,10.70
2024-04-21T08:29:36.968Z,10.90
2024-04-21T08:32:04.227Z,11.00
2024-04-21T08:34:31.342Z,11.00
2024-04-21T08:36:58.296Z,11.00
2024-04-21T08:39:25.643Z,11.00
2024-04-21T08:41:53.332Z,11.10
2024-04-21T08:44:20.202Z,11.00
2024-04-21T08:46:53.545Z,10.90
2024-04-21T08:49:21.469Z,10.80
2024-04-21T08:51:49.519Z,10.80
2024-04-21T08:54:17.173Z,10.80
2024-04-21T08:56:46.608Z,10.80
2024-04-21T08:59:14.627Z,10.70
2024-04-21T09:02:30.778Z,10.70
2024-04-21T09:04:58.159Z,10.50
2024-04-21T09:07:25.572Z,10.50
2024-04-21T09:09:54.697Z,10.60
2024-04-21T09:12:21.783Z,10.80
2024-04-21T09:14:49.266Z,10.90
2024-04-21T09:17:16.163Z,10.90
2024-04-21T09:19:43.156Z,11.10
2024-04-21T09:22:10.136Z,11.20
2024-04-21T09:24:42.200Z,11.30
2024-04-21T09:27:09.210Z,11.30
2024-04-21T09:29:36.182Z,11.30
2024-04-21T09:32:03.510Z,11.50
2024-04-21T09:34:31.286Z,11.60
2024-04-21T09:36:59.104Z,11.70
2024-04-21T09:39:26.641Z,11.80
2024-04-21T09:41:56.020Z,11.80
2024-04-21T09:44:23.768Z,11.80
2024-04-21T09:46:50.909Z,11.80
2024-04-21T09:49:19.525Z,11.80
2024-04-21T09:51:47.331Z,11.70
2024-04-21T09:54:20.446Z,11.70
2024-04-21T09:56:52.266Z,11.70
2024-04-21T09:59:23.179Z,11.70
2024-04-21T10:01:50.582Z,11.80
2024-04-21T10:04:20.608Z,11.90
2024-04-21T10:06:50.220Z,11.90
2024-04-21T10:09:20.718Z,12.10
2024-04-21T10:11:47.669Z,12.20
2024-04-21T10:14:15.484Z,12.30
2024-04-21T10:16:43.878Z,12.40
2024-04-21T10:19:14.518Z,12.40
2024-04-21T10:21:41.767Z,12.40
2024-04-21T10:24:08.807Z,12.40
2024-04-21T10:26:36.112Z,12.40
2024-04-21T10:29:13.274Z,12.30
2024-04-21T10:31:40.616Z,12.20
2024-04-21T10:34:10.208Z,12.30
2024-04-21T10:36:55.991Z,12.30
2024-04-21T10:39:26.343Z,12.40
2024-04-21T10:41:58.245Z,12.50
2024-04-21T10:44:25.805Z,12.50
2024-04-21T10:46:52.702Z,12.60
2024-04-21T10:49:19.646Z,12.70
2024-04-21T10:51:48.318Z,12.70
2024-04-21T10:54:15.380Z,12.70
2024-04-21T10:56:42.403Z,12.80
2024-04-21T10:59:09.832Z,12.80
2024-04-21T11:01:36.834Z,12.80
2024-04-21T11:04:05.584Z,12.90
2024-04-21T11:06:33.333Z,13.00
2024-04-21T11:09:00.370Z,13.00
2024-04-21T11:11:28.381Z,13.20
2024-04-21T11:13:57.564Z,13.30
2024-04-21T11:16:30.233Z,13.50
2024-04-21T11:18:58.448Z,13.60
2024-04-21T11:21:25.864Z,13.60
2024-04-21T11:23:56.804Z,13.60
2024-04-21T11:26:24.158Z,13.70
2024-04-21T11:28:51.413Z,13.80
2024-04-21T11:31:18.643Z,13.90
2024-04-21T11:33:45.660Z,14.10
2024-04-21T11:36:17.247Z,14.20
2024-04-21T11:38:46.228Z,14.30
2024-04-21T11:41:13.737Z,14.40
2024-04-21T11:43:40.849Z,14.60
2024-04-21T11:46:08.191Z,14.50
2024-04-21T11:48:36.512Z,14.40
2024-04-21T11:51:05.195Z,14.40
2024-04-21T11:53:32.287Z,14.40
2024-04-21T11:55:59.288Z,14.60
2024-04-21T12:00:54.803Z,14.70
2024-04-21T12:03:21.972Z,14.70
2024-04-21T12:05:51.494Z,14.70
2024-04-21T12:08:18.379Z,14.60
2024-04-21T12:10:45.329Z,14.60
2024-04-21T12:13:12.252Z,14.60
2024-04-21T12:15:39.186Z,14.60
2024-04-21T12:18:12.597Z,14.70
2024-04-21T12:20:39.673Z,14.80
2024-04-21T12:23:08.742Z,15.00
2024-04-21T12:25:36.075Z,15.10
2024-04-21T12:28:03.141Z,15.00
2024-04-21T12:30:30.364Z,15.00
2024-04-21T12:32:57.466Z,14.90
2024-04-21T12:35:26.834Z,14.90
2024-04-21T12:37:53.745Z,14.90
2024-04-21T12:40:20.734Z,14.80
2024-04-21T12:42:49.838Z,14.80
2024-04-21T12:45:18.084Z,14.80
2024-04-21T12:47:45.033Z,14.80
2024-04-21T12:50:12.050Z,15.00
2024-04-21T12:52:39.024Z,15.00
2024-04-21T12:55:06.419Z,15.00
2024-04-21T12:57:33.500Z,14.90
2024-04-21T13:00:00.581Z,14.90
2024-04-21T13:02:27.757Z,14.90
2024-04-21T13:04:54.835Z,14.90
2024-04-21T13:07:21.846Z,14.90
2024-04-21T13:09:48.778Z,14.70
2024-04-21T13:12:15.715Z,14.50
2024-04-21T13:14:42.591Z,14.40
2024-04-21T13:17:09.519Z,14.40
2024-04-21T13:19:38.093Z,14.50
2024-04-21T13:22:05.627Z,14.50
2024-04-21T13:24:32.608Z,14.50
2024-04-21T13:26:59.481Z,14.50
2024-04-21T13:29:26.470Z,14.50
2024-04-21T13:31:53.373Z,14.50
2024-04-21T13:34:20.355Z,14.40
2024-04-21T13:36:47.306Z,14.40
2024-04-21T13:39:14.379Z,14.40
2024-04-21T13:41:41.270Z,14.30
2024-04-21T13:44:08.142Z,14.30
2024-04-21T13:46:35.098Z,14.40
2024-04-21T13:49:02.070Z,14.50
2024-04-21T13:51:32.596Z,14.60
2024-04-21T13:54:03.227Z,14.50
2024-04-21T13:56:30.528Z,14.70
2024-04-21T13:58:57.522Z,14.90
2024-04-21T14:01:24.777Z,15.10
2024-04-21T14:04:02.659Z,15.20
2024-04-21T14:06:31.200Z,15.40
2024-04-21T14:08:58.758Z,15.60
2024-04-21T14:11:26.282Z,15.80
2024-04-21T14:13:54.498Z,15.90
2024-04-21T14:16:21.574Z,16.00
2024-04-21T14:18:51.787Z,16.10
2024-04-21T14:21:19.552Z,16.20
2024-04-21T14:23:46.433Z,16.10
2024-04-21T14:26:13.346Z,16.20
2024-04-21T14:28:40.239Z,16.20
2024-04-21T14:31:07.519Z,16.20
2024-04-21T14:33:34.689Z,16.20
2024-04-21T14:36:01.654Z,16.10
2024-04-21T14:38:28.540Z,16.20
2024-04-21T14:40:55.490Z,16.20
2024-04-21T14:43:22.437Z,16.10
2024-04-21T14:45:49.575Z,15.90
2024-04-21T14:48:17.329Z,15.90
2024-04-21T14:50:57.257Z,15.90
2024-04-21T14:53:24.819Z,15.80
2024-04-21T14:55:53.106Z,15.90
2024-04-21T14:58:20.038Z,15.90
2024-04-21T15:00:46.967Z,15.80
2024-04-21T15:03:13.873Z,15.80
2024-04-21T15:05:40.754Z,15.70
2024-04-21T15:08:07.697Z,15.50
2024-04-21T15:10:34.832Z,15.50
2024-04-21T15:13:01.849Z,15.60
2024-04-21T15:15:29.032Z,15.70
2024-04-21T15:18:00.397Z,15.60
2024-04-21T15:20:27.383Z,15.70
2024-04-21T15:22:54.226Z,15.70
2024-04-21T15:25:21.402Z,15.80
2024-04-21T15:27:50.338Z,15.90
2024-04-21T15:30:19.019Z,15.90
2024-04-21T15:32:47.672Z,15.90
2024-04-21T15:35:15.381Z,15.90
2024-04-21T15:37:43.247Z,15.80
2024-04-21T15:40:11.687Z,15.90
2024-04-21T15:42:40.143Z,15.90
2024-04-21T15:45:10.847Z,15.90
2024-04-21T15:47:38.019Z,16.00
2024-04-21T15:50:05.960Z,15.80
2024-04-21T15:52:32.985Z,15.80
2024-04-21T15:55:01.255Z,15.90
2024-04-21T15:57:29.050Z,15.90
2024-04-21T15:59:55.948Z,15.90
2024-04-21T16:02:22.892Z,15.70
2024-04-21T16:04:49.891Z,15.70
2024-04-21T16:07:19.646Z,15.60
2024-04-21T16:09:46.787Z,15.60
2024-04-21T16:12:13.694Z,15.50
2024-04-21T16:14:40.627Z,15.30
2024-04-21T16:17:08.563Z,15.40
2024-04-21T16:19:35.591Z,15.30
2024-04-21T16:22:02.671Z,15.20
2024-04-21T16:24:29.586Z,15.00
2024-04-21T16:26:56.520Z,14.80
2024-04-21T16:29:23.395Z,14.70
2024-04-21T16:31:50.529Z,14.60
2024-04-21T16:34:17.891Z,14.60
2024-04-21T16:36:45.074Z,14.50
2024-04-21T16:39:12.354Z,14.50
2024-04-21T16:41:39.566Z,14.50
2024-04-21T16:44:06.844Z,14.40
2024-04-21T16:46:34.964Z,14.40
2024-04-21T16:49:03.555Z,14.40
2024-04-21T16:51:31.626Z,14.30
2024-04-21T16:53:58.834Z,14.30
2024-04-21T16:56:26.360Z,14.10
2024-04-21T16:58:54.046Z,13.90
2024-04-21T17:01:21.484Z,13.70
2024-04-21T17:03:49.008Z,13.60
2024-04-21T17:06:21.026Z,13.50
2024-04-21T17:08:48.426Z,13.40
2024-04-21T17:11:15.926Z,13.10
2024-04-21T17:13:44.558Z,12.60
2024-04-21T17:18:40.857Z,12.00
2024-04-21T17:21:08.015Z,11.40
2024-04-21T18:02:57.486Z,10.50
2024-04-21T18:05:24.508Z,10.50
2024-04-21T18:07:56.066Z,10.60
2024-04-21T18:10:23.414Z,10.60
2024-04-21T18:12:50.430Z,10.70
2024-04-21T18:15:17.384Z,10.70
2024-04-21T18:17:44.348Z,10.70
2024-04-21T18:20:11.560Z,10.70
2024-04-21T18:22:38.604Z,10.80
2024-04-21T18:25:05.889Z,10.80
2024-04-21T18:27:32.836Z,10.90
2024-04-21T18:29:59.758Z,10.90
2024-04-21T18:32:27.508Z,10.90
2024-04-21T18:34:54.630Z,10.90
2024-04-21T18:37:21.833Z,10.90
2024-04-21T18:39:50.231Z,10.90
2024-04-21T18:42:18.635Z,10.80
2024-04-21T18:44:46.919Z,10.70
2024-04-21T18:47:14.129Z,10.70
2024-04-21T18:49:42.224Z,10.70
2024-04-21T18:52:12.079Z,10.60
2024-04-21T18:54:39.457Z,10.50
2024-04-21T18:57:06.489Z,10.40
2024-04-21T18:59:37.339Z,10.30
2024-04-21T19:02:06.290Z,10.30
2024-04-21T19:04:33.294Z,10.30
